sensor_id;sensor_type;location;lat;lon;timestamp;pressure;altitude;pressure_sealevel;temperature;humidity
41312;BME280;27061;41.648;24.568;2023-05-12T00:01:23;85880.03;;;9.60;74.08
41312;BME280;27061;41.648;24.568;2023-05-12T00:03:50;85985.75;;;10.42;73.59
41312;BME280;27061;41.648;24.568;2023-05-12T00:06:20;85952.81;;;10.13;73.43
41312;BME280;27061;41.648;24.568;2023-05-12T00:08:47;85899.88;;;9.82;73.26
41312;BME280;27061;41.648;24.568;2023-05-12T00:11:14;85939.69;;;10.08;73.31
41312;BME280;27061;41.648;24.568;2023-05-12T00:13:41;85965.88;;;10.21;73.61
41312;BME280;27061;41.648;24.568;2023-05-12T00:16:08;85943.22;;;10.04;73.55
41312;BME280;27061;41.648;24.568;2023-05-12T00:18:35;85961.13;;;10.11;73.91
41312;BME280;27061;41.648;24.568;2023-05-12T00:21:03;85919.84;;;9.87;73.75
41312;BME280;27061;41.648;24.568;2023-05-12T00:23:30;85927.47;;;9.86;73.74
41312;BME280;27061;41.648;24.568;2023-05-12T00:25:57;85992.75;;;10.35;74.40
41312;BME280;27061;41.648;24.568;2023-05-12T00:28:24;85999.66;;;10.36;74.21
41312;BME280;27061;41.648;24.568;2023-05-12T00:30:51;85989.25;;;10.38;74.00
41312;BME280;27061;41.648;24.568;2023-05-12T00:33:18;85943.84;;;10.09;73.73
41312;BME280;27061;41.648;24.568;2023-05-12T00:35:45;85933.66;;;9.91;74.44
41312;BME280;27061;41.648;24.568;2023-05-12T00:38:12;86000.38;;;10.30;75.54
41312;BME280;27061;41.648;24.568;2023-05-12T00:40:39;85997.66;;;10.26;76.02
41312;BME280;27061;41.648;24.568;2023-05-12T00:43:08;85955.66;;;10.03;75.74
41312;BME280;27061;41.648;24.568;2023-05-12T00:45:35;85943.41;;;9.84;76.04
41312;BME280;27061;41.648;24.568;2023-05-12T00:48:03;85948.91;;;9.86;75.19
41312;BME280;27061;41.648;24.568;2023-05-12T00:50:31;85987.22;;;10.35;74.82
41312;BME280;27061;41.648;24.568;2023-05-12T00:53:00;85995.53;;;10.33;75.16
41312;BME280;27061;41.648;24.568;2023-05-12T00:55:28;85994.16;;;10.30;75.45
41312;BME280;27061;41.648;24.568;2023-05-12T00:57:56;85946.78;;;9.93;75.56
41312;BME280;27061;41.648;24.568;2023-05-12T01:00:23;85970.78;;;10.14;75.82
41312;BME280;27061;41.648;24.568;2023-05-12T01:02:50;85997.59;;;10.34;75.57
41312;BME280;27061;41.648;24.568;2023-05-12T01:05:18;85999.59;;;10.42;74.91
41312;BME280;27061;41.648;24.568;2023-05-12T01:07:45;85927.44;;;9.88;75.32
41312;BME280;27061;41.648;24.568;2023-05-12T01:10:18;85994.16;;;10.32;75.58
41312;BME280;27061;41.648;24.568;2023-05-12T01:12:45;85991.41;;;10.30;75.68
41312;BME280;27061;41.648;24.568;2023-05-12T01:15:14;85991.41;;;10.30;75.78
41312;BME280;27061;41.648;24.568;2023-05-12T01:17:51;85961.78;;;10.16;75.79
41312;BME280;27061;41.648;24.568;2023-05-12T01:20:21;85988.66;;;10.27;75.62
41312;BME280;27061;41.648;24.568;2023-05-12T01:22:49;85952.22;;;10.03;75.85
41312;BME280;27061;41.648;24.568;2023-05-12T01:25:18;85929.53;;;9.88;75.97
41312;BME280;27061;41.648;24.568;2023-05-12T01:27:47;85951.53;;;10.02;75.83
41312;BME280;27061;41.648;24.568;2023-05-12T01:30:17;85977.63;;;10.23;75.99
41312;BME280;27061;41.648;24.568;2023-05-12T01:32:44;85935.78;;;9.84;76.28
41312;BME280;27061;41.648;24.568;2023-05-12T01:35:11;85946.78;;;9.93;76.43
41312;BME280;27061;41.648;24.568;2023-05-12T01:37:45;85977.69;;;10.13;76.45
41312;BME280;27061;41.648;24.568;2023-05-12T01:40:12;85965.25;;;10.12;75.95
41312;BME280;27061;41.648;24.568;2023-05-12T01:42:44;85961.13;;;10.09;76.30
41312;BME280;27061;41.648;24.568;2023-05-12T01:45:12;85939.25;;;9.83;76.27
41312;BME280;27061;41.648;24.568;2023-05-12T01:47:40;85944.75;;;9.87;76.19
41312;BME280;27061;41.648;24.568;2023-05-12T01:50:08;85979.06;;;10.16;76.46
41312;BME280;27061;41.648;24.568;2023-05-12T01:52:36;85925.56;;;9.65;76.74
41312;BME280;27061;41.648;24.568;2023-05-12T01:55:07;85985.34;;;10.09;76.96
41312;BME280;27061;41.648;24.568;2023-05-12T01:57:42;85885.03;;;9.39;76.02
41312;BME280;27061;41.648;24.568;2023-05-12T02:00:10;85983.22;;;10.13;76.61
41312;BME280;27061;41.648;24.568;2023-05-12T02:02:41;85938.69;;;9.70;76.33
41312;BME280;27061;41.648;24.568;2023-05-12T02:05:12;85935.19;;;9.74;76.21
41312;BME280;27061;41.648;24.568;2023-05-12T02:07:41;85978.41;;;10.10;76.45
41312;BME280;27061;41.648;24.568;2023-05-12T02:10:09;85972.88;;;10.10;76.21
41312;BME280;27061;41.648;24.568;2023-05-12T02:12:36;85976.53;;;9.90;74.95
41312;BME280;27061;41.648;24.568;2023-05-12T02:15:04;85967.50;;;9.96;75.04
41312;BME280;27061;41.648;24.568;2023-05-12T02:17:35;85962.66;;;9.94;75.57
41312;BME280;27061;41.648;24.568;2023-05-12T02:20:04;85937.97;;;9.74;75.16
41312;BME280;27061;41.648;24.568;2023-05-12T02:22:31;85980.56;;;10.03;75.15
41312;BME280;27061;41.648;24.568;2023-05-12T02:24:58;85975.00;;;10.05;74.96
41312;BME280;27061;41.648;24.568;2023-05-12T02:27:25;85778.03;;;8.50;74.06
41312;BME280;27061;41.648;24.568;2023-05-12T02:29:53;85984.69;;;10.04;73.85
41312;BME280;27061;41.648;24.568;2023-05-12T02:32:20;85988.88;;;10.01;74.06
41312;BME280;27061;41.648;24.568;2023-05-12T02:34:49;85979.28;;;9.92;74.52
41312;BME280;27061;41.648;24.568;2023-05-12T02:37:16;85932.63;;;9.49;74.81
41312;BME280;27061;41.648;24.568;2023-05-12T02:39:43;85971.00;;;9.88;75.12
41312;BME280;27061;41.648;24.568;2023-05-12T02:42:10;85973.78;;;9.88;75.64
41312;BME280;27061;41.648;24.568;2023-05-12T02:44:37;85940.91;;;9.51;74.80
41312;BME280;27061;41.648;24.568;2023-05-12T02:47:07;85979.38;;;9.80;75.04
41312;BME280;27061;41.648;24.568;2023-05-12T02:49:34;85950.66;;;9.42;74.52
41312;BME280;27061;41.648;24.568;2023-05-12T02:52:02;85969.81;;;9.65;76.22
41312;BME280;27061;41.648;24.568;2023-05-12T02:54:29;85942.28;;;9.50;75.59
41312;BME280;27061;41.648;24.568;2023-05-12T02:56:56;85990.41;;;9.84;75.74
41312;BME280;27061;41.648;24.568;2023-05-12T02:59:23;85999.34;;;9.86;74.91
41312;BME280;27061;41.648;24.568;2023-05-12T03:01:50;85974.69;;;9.60;75.39
41312;BME280;27061;41.648;24.568;2023-05-12T03:04:18;85996.66;;;9.76;75.54
41312;BME280;27061;41.648;24.568;2023-05-12T03:06:45;85969.19;;;9.54;76.58
41312;BME280;27061;41.648;24.568;2023-05-12T03:09:12;85942.38;;;9.42;74.56
41312;BME280;27061;41.648;24.568;2023-05-12T03:11:39;85998.03;;;9.81;75.02
41312;BME280;27061;41.648;24.568;2023-05-12T03:14:06;85935.56;;;9.27;75.59
41312;BME280;27061;41.648;24.568;2023-05-12T03:16:33;85942.44;;;9.30;75.38
41312;BME280;27061;41.648;24.568;2023-05-12T03:19:00;85991.28;;;9.62;75.18
41312;BME280;27061;41.648;24.568;2023-05-12T03:21:28;85989.84;;;9.67;75.63
41312;BME280;27061;41.648;24.568;2023-05-12T03:23:56;85978.25;;;9.46;74.86
41312;BME280;27061;41.648;24.568;2023-05-12T03:26:24;85970.03;;;9.36;75.02
41312;BME280;27061;41.648;24.568;2023-05-12T03:28:51;85980.31;;;9.44;74.25
41312;BME280;27061;41.648;24.568;2023-05-12T03:31:18;85982.38;;;9.45;74.97
41312;BME280;27061;41.648;24.568;2023-05-12T03:33:45;86019.56;;;9.65;75.55
41312;BME280;27061;41.648;24.568;2023-05-12T03:36:13;85963.16;;;9.31;75.60
41312;BME280;27061;41.648;24.568;2023-05-12T03:38:40;86030.59;;;9.67;76.03
41312;BME280;27061;41.648;24.568;2023-05-12T03:41:07;86014.03;;;9.65;76.22
41312;BME280;27061;41.648;24.568;2023-05-12T03:43:34;85979.69;;;9.33;76.28
41312;BME280;27061;41.648;24.568;2023-05-12T03:46:02;85941.91;;;9.03;76.20
41312;BME280;27061;41.648;24.568;2023-05-12T03:48:29;86022.31;;;9.67;75.99
41312;BME280;27061;41.648;24.568;2023-05-12T03:50:57;85979.75;;;9.29;76.23
41312;BME280;27061;41.648;24.568;2023-05-12T03:53:24;86023.06;;;9.63;76.66
41312;BME280;27061;41.648;24.568;2023-05-12T03:55:51;86020.28;;;9.63;75.79
41312;BME280;27061;41.648;24.568;2023-05-12T03:58:18;86012.66;;;9.66;76.22
41312;BME280;27061;41.648;24.568;2023-05-12T04:00:45;85999.56;;;9.58;76.24
41312;BME280;27061;41.648;24.568;2023-05-12T04:03:16;85979.00;;;9.35;76.54
41312;BME280;27061;41.648;24.568;2023-05-12T04:05:43;85968.63;;;9.37;76.34
41312;BME280;27061;41.648;24.568;2023-05-12T04:08:10;85974.91;;;9.28;75.34
41312;BME280;27061;41.648;24.568;2023-05-12T04:10:40;85978.31;;;9.36;75.18
41312;BME280;27061;41.648;24.568;2023-05-12T04:13:07;86023.75;;;9.62;76.94
41312;BME280;27061;41.648;24.568;2023-05-12T04:15:34;85988.03;;;9.31;76.93
41312;BME280;27061;41.648;24.568;2023-05-12T04:18:02;86027.84;;;9.65;76.83
41312;BME280;27061;41.648;24.568;2023-05-12T04:20:30;86022.38;;;9.63;75.87
41312;BME280;27061;41.648;24.568;2023-05-12T04:22:57;86027.16;;;9.66;76.49
41312;BME280;27061;41.648;24.568;2023-05-12T04:25:24;86031.28;;;9.73;75.79
41312;BME280;27061;41.648;24.568;2023-05-12T04:27:52;86028.47;;;9.75;75.16
41312;BME280;27061;41.648;24.568;2023-05-12T04:30:19;85986.50;;;9.52;75.40
41312;BME280;27061;41.648;24.568;2023-05-12T04:32:47;86023.00;;;9.65;75.89
41312;BME280;27061;41.648;24.568;2023-05-12T04:35:15;86038.19;;;9.72;75.49
41312;BME280;27061;41.648;24.568;2023-05-12T04:37:42;85982.41;;;9.43;75.43
41312;BME280;27061;41.648;24.568;2023-05-12T04:40:09;86018.84;;;9.68;75.70
41312;BME280;27061;41.648;24.568;2023-05-12T04:42:36;86031.97;;;9.70;75.88
41312;BME280;27061;41.648;24.568;2023-05-12T04:45:06;86038.22;;;9.66;75.90
41312;BME280;27061;41.648;24.568;2023-05-12T04:47:34;86005.22;;;9.42;76.19
41312;BME280;27061;41.648;24.568;2023-05-12T04:50:01;86032.00;;;9.66;75.84
41312;BME280;27061;41.648;24.568;2023-05-12T04:52:30;85989.41;;;9.30;75.47
41312;BME280;27061;41.648;24.568;2023-05-12T04:54:57;86031.34;;;9.63;75.81
41312;BME280;27061;41.648;24.568;2023-05-12T04:57:24;85983.91;;;9.26;75.70
41312;BME280;27061;41.648;24.568;2023-05-12T04:59:51;85990.72;;;9.39;75.59
41312;BME280;27061;41.648;24.568;2023-05-12T05:02:19;86034.75;;;9.68;75.37
41312;BME280;27061;41.648;24.568;2023-05-12T05:04:46;86037.53;;;9.66;75.19
41312;BME280;27061;41.648;24.568;2023-05-12T05:07:14;86034.75;;;9.66;75.23
41312;BME280;27061;41.648;24.568;2023-05-12T05:09:41;86000.41;;;9.34;75.81
41312;BME280;27061;41.648;24.568;2023-05-12T05:12:09;86036.13;;;9.69;76.08
41312;BME280;27061;41.648;24.568;2023-05-12T05:14:36;86027.84;;;9.67;75.93
41312;BME280;27061;41.648;24.568;2023-05-12T05:17:03;85986.59;;;9.34;75.99
41312;BME280;27061;41.648;24.568;2023-05-12T05:19:30;85997.69;;;9.32;77.42
41312;BME280;27061;41.648;24.568;2023-05-12T05:22:17;86019.66;;;9.52;76.99
41312;BME280;27061;41.648;24.568;2023-05-12T05:24:44;86004.53;;;9.41;76.42
41312;BME280;27061;41.648;24.568;2023-05-12T05:27:11;85983.22;;;9.24;75.78
41312;BME280;27061;41.648;24.568;2023-05-12T05:29:39;85992.09;;;9.40;75.65
41312;BME280;27061;41.648;24.568;2023-05-12T05:32:06;86022.31;;;9.65;75.69
41312;BME280;27061;41.648;24.568;2023-05-12T05:34:34;85991.34;;;9.50;74.69
41312;BME280;27061;41.648;24.568;2023-05-12T05:37:01;86033.34;;;9.71;73.24
41312;BME280;27061;41.648;24.568;2023-05-12T05:39:29;86031.28;;;9.67;73.52
41312;BME280;27061;41.648;24.568;2023-05-12T05:41:56;85972.84;;;9.26;74.15
41312;BME280;27061;41.648;24.568;2023-05-12T05:44:24;86035.53;;;9.56;72.52
41312;BME280;27061;41.648;24.568;2023-05-12T05:46:52;86038.28;;;9.58;73.08
41312;BME280;27061;41.648;24.568;2023-05-12T05:49:20;86029.34;;;9.49;72.77
41312;BME280;27061;41.648;24.568;2023-05-12T05:51:47;86021.00;;;9.53;72.60
41312;BME280;27061;41.648;24.568;2023-05-12T05:54:14;86048.63;;;9.64;73.09
41312;BME280;27061;41.648;24.568;2023-05-12T05:56:42;85999.03;;;9.33;74.11
41312;BME280;27061;41.648;24.568;2023-05-12T05:59:09;85993.53;;;9.33;74.49
41312;BME280;27061;41.648;24.568;2023-05-12T06:01:36;86001.81;;;9.33;75.06
41312;BME280;27061;41.648;24.568;2023-05-12T06:04:04;86054.09;;;9.70;75.76
41312;BME280;27061;41.648;24.568;2023-05-12T06:06:31;86054.09;;;9.72;76.36
41312;BME280;27061;41.648;24.568;2023-05-12T06:08:58;86026.53;;;9.53;75.95
41312;BME280;27061;41.648;24.568;2023-05-12T06:11:25;86053.41;;;9.71;73.28
41312;BME280;27061;41.648;24.568;2023-05-12T06:13:53;86023.16;;;9.45;74.99
41312;BME280;27061;41.648;24.568;2023-05-12T06:16:20;86057.41;;;9.90;73.47
41312;BME280;27061;41.648;24.568;2023-05-12T06:18:47;86005.84;;;9.52;72.87
41312;BME280;27061;41.648;24.568;2023-05-12T06:21:14;86062.84;;;10.03;71.33
41312;BME280;27061;41.648;24.568;2023-05-12T06:23:41;86050.47;;;9.94;70.12
41312;BME280;27061;41.648;24.568;2023-05-12T06:26:08;86066.38;;;9.95;72.16
41312;BME280;27061;41.648;24.568;2023-05-12T06:28:35;86063.63;;;9.91;73.29
41312;BME280;27061;41.648;24.568;2023-05-12T06:31:05;86042.88;;;9.90;72.73
41312;BME280;27061;41.648;24.568;2023-05-12T06:33:33;86023.63;;;9.76;72.76
41312;BME280;27061;41.648;24.568;2023-05-12T06:36:00;86018.22;;;9.60;74.27
41312;BME280;27061;41.648;24.568;2023-05-12T06:38:27;86052.50;;;9.97;73.48
41312;BME280;27061;41.648;24.568;2023-05-12T06:40:54;86045.66;;;9.88;74.94
41312;BME280;27061;41.648;24.568;2023-05-12T06:43:21;86057.94;;;10.09;74.65
41312;BME280;27061;41.648;24.568;2023-05-12T06:45:53;86005.72;;;9.71;72.88
41312;BME280;27061;41.648;24.568;2023-05-12T06:48:22;86011.16;;;9.83;73.06
41312;BME280;27061;41.648;24.568;2023-05-12T06:50:50;85983.66;;;9.61;74.09
41312;BME280;27061;41.648;24.568;2023-05-12T06:53:17;85998.09;;;9.73;77.58
41312;BME280;27061;41.648;24.568;2023-05-12T06:55:44;86039.94;;;10.12;75.59
41312;BME280;27061;41.648;24.568;2023-05-12T06:58:12;86039.81;;;10.28;79.46
41312;BME280;27061;41.648;24.568;2023-05-12T07:00:39;86013.75;;;10.05;70.95
41312;BME280;27061;41.648;24.568;2023-05-12T07:03:06;86016.47;;;10.07;74.83
41312;BME280;27061;41.648;24.568;2023-05-12T07:05:36;86046.59;;;10.48;77.25
41312;BME280;27061;41.648;24.568;2023-05-12T07:08:04;86060.25;;;10.64;78.31
41312;BME280;27061;41.648;24.568;2023-05-12T07:10:31;85996.34;;;10.17;73.92
41312;BME280;27061;41.648;24.568;2023-05-12T07:12:58;86058.75;;;10.79;69.42
41312;BME280;27061;41.648;24.568;2023-05-12T07:15:26;86059.34;;;10.86;76.13
41312;BME280;27061;41.648;24.568;2023-05-12T07:17:53;86046.16;;;10.90;76.68
41312;BME280;27061;41.648;24.568;2023-05-12T07:20:21;86032.25;;;10.92;76.75
41312;BME280;27061;41.648;24.568;2023-05-12T07:22:48;86014.19;;;10.99;77.25
41312;BME280;27061;41.648;24.568;2023-05-12T07:25:17;86049.06;;;11.37;73.05
41312;BME280;27061;41.648;24.568;2023-05-12T07:27:45;86023.56;;;11.27;71.99
41312;BME280;27061;41.648;24.568;2023-05-12T07:30:12;86044.75;;;11.51;67.14
41312;BME280;27061;41.648;24.568;2023-05-12T07:32:39;85976.56;;;11.17;71.00
41312;BME280;27061;41.648;24.568;2023-05-12T07:35:06;86009.44;;;11.47;67.54
41312;BME280;27061;41.648;24.568;2023-05-12T07:37:34;86042.13;;;11.90;65.22
41312;BME280;27061;41.648;24.568;2023-05-12T07:40:01;86038.00;;;11.89;62.31
41312;BME280;27061;41.648;24.568;2023-05-12T07:42:28;86053.16;;;11.96;62.77
41312;BME280;27061;41.648;24.568;2023-05-12T07:44:55;86045.56;;;11.92;64.31
41312;BME280;27061;41.648;24.568;2023-05-12T07:47:22;86009.06;;;11.73;62.89
41312;BME280;27061;41.648;24.568;2023-05-12T07:49:49;86035.00;;;12.05;72.83
41312;BME280;27061;41.648;24.568;2023-05-12T07:52:16;86017.03;;;12.00;74.59
41312;BME280;27061;41.648;24.568;2023-05-12T07:54:46;86043.78;;;12.20;72.34
41312;BME280;27061;41.648;24.568;2023-05-12T07:57:13;86041.50;;;12.32;73.50
41312;BME280;27061;41.648;24.568;2023-05-12T07:59:40;86048.25;;;12.45;73.35
41312;BME280;27061;41.648;24.568;2023-05-12T08:02:07;86016.50;;;12.34;71.24
41312;BME280;27061;41.648;24.568;2023-05-12T08:04:34;86042.28;;;12.70;73.20
41312;BME280;27061;41.648;24.568;2023-05-12T08:07:07;86042.78;;;12.80;73.96
41312;BME280;27061;41.648;24.568;2023-05-12T08:09:34;86050.16;;;12.94;72.59
41312;BME280;27061;41.648;24.568;2023-05-12T08:12:01;86040.38;;;12.99;62.78
41312;BME280;27061;41.648;24.568;2023-05-12T08:14:28;86045.63;;;13.17;67.65
41312;BME280;27061;41.648;24.568;2023-05-12T08:16:55;86030.44;;;13.10;72.35
41312;BME280;27061;41.648;24.568;2023-05-12T08:19:22;86050.13;;;13.35;61.07
41312;BME280;27061;41.648;24.568;2023-05-12T08:21:49;86050.81;;;13.36;59.42
41312;BME280;27061;41.648;24.568;2023-05-12T08:24:17;86050.03;;;13.41;61.93
41312;BME280;27061;41.648;24.568;2023-05-12T08:26:43;86054.16;;;13.44;66.46
41312;BME280;27061;41.648;24.568;2023-05-12T08:29:10;86049.19;;;13.49;63.50
41312;BME280;27061;41.648;24.568;2023-05-12T08:31:37;86017.84;;;13.15;71.46
41312;BME280;27061;41.648;24.568;2023-05-12T08:34:05;86009.41;;;13.22;71.51
41312;BME280;27061;41.648;24.568;2023-05-12T08:36:39;86048.31;;;13.56;71.63
41312;BME280;27061;41.648;24.568;2023-05-12T08:39:07;86017.72;;;13.24;70.98
41312;BME280;27061;41.648;24.568;2023-05-12T08:41:50;85996.81;;;13.25;65.40
41312;BME280;27061;41.648;24.568;2023-05-12T08:44:18;86000.63;;;13.44;64.52
41312;BME280;27061;41.648;24.568;2023-05-12T08:46:46;86052.59;;;13.86;64.32
41312;BME280;27061;41.648;24.568;2023-05-12T08:49:16;86049.72;;;13.90;66.65
41312;BME280;27061;41.648;24.568;2023-05-12T08:51:52;86052.38;;;13.97;68.80
41312;BME280;27061;41.648;24.568;2023-05-12T08:54:26;86045.94;;;14.04;68.07
41312;BME280;27061;41.648;24.568;2023-05-12T08:56:54;86052.16;;;14.07;68.59
41312;BME280;27061;41.648;24.568;2023-05-12T08:59:24;86058.16;;;14.19;65.12
41312;BME280;27061;41.648;24.568;2023-05-12T09:01:53;86031.25;;;14.08;66.22
41312;BME280;27061;41.648;24.568;2023-05-12T09:04:20;86012.59;;;14.02;65.73
41312;BME280;27061;41.648;24.568;2023-05-12T09:06:47;86017.84;;;14.16;59.92
41312;BME280;27061;41.648;24.568;2023-05-12T09:09:16;86007.34;;;14.19;63.17
41312;BME280;27061;41.648;24.568;2023-05-12T09:11:43;86036.22;;;14.34;66.64
41312;BME280;27061;41.648;24.568;2023-05-12T09:14:16;86043.56;;;14.50;65.48
41312;BME280;27061;41.648;24.568;2023-05-12T09:16:46;86042.75;;;14.53;61.64
41312;BME280;27061;41.648;24.568;2023-05-12T09:19:19;86037.34;;;14.47;65.26
41312;BME280;27061;41.648;24.568;2023-05-12T09:21:47;86033.47;;;14.63;63.26
41312;BME280;27061;41.648;24.568;2023-05-12T09:24:14;86030.25;;;14.52;63.31
41312;BME280;27061;41.648;24.568;2023-05-12T09:26:46;86045.91;;;14.68;66.14
41312;BME280;27061;41.648;24.568;2023-05-12T09:29:14;86027.28;;;14.60;64.63
41312;BME280;27061;41.648;24.568;2023-05-12T09:31:56;86049.03;;;14.83;62.95
41312;BME280;27061;41.648;24.568;2023-05-12T09:34:34;86033.88;;;14.76;65.01
41312;BME280;27061;41.648;24.568;2023-05-12T09:37:07;86050.72;;;14.98;63.71
41312;BME280;27061;41.648;24.568;2023-05-12T09:39:35;86029.09;;;14.72;66.94
41312;BME280;27061;41.648;24.568;2023-05-12T09:42:02;86029.59;;;14.81;65.00
41312;BME280;27061;41.648;24.568;2023-05-12T09:44:30;86053.22;;;15.11;66.92
41312;BME280;27061;41.648;24.568;2023-05-12T09:47:07;86055.59;;;15.00;65.87
41312;BME280;27061;41.648;24.568;2023-05-12T09:49:36;86032.59;;;14.99;66.62
41312;BME280;27061;41.648;24.568;2023-05-12T09:52:04;86047.22;;;15.27;68.83
41312;BME280;27061;41.648;24.568;2023-05-12T09:54:31;86040.69;;;15.36;68.60
41312;BME280;27061;41.648;24.568;2023-05-12T09:57:01;86017.13;;;15.31;65.31
41312;BME280;27061;41.648;24.568;2023-05-12T09:59:31;86052.59;;;15.62;68.51
41312;BME280;27061;41.648;24.568;2023-05-12T10:02:00;86030.91;;;15.64;65.86
41312;BME280;27061;41.648;24.568;2023-05-12T10:04:29;86046.31;;;15.88;63.94
41312;BME280;27061;41.648;24.568;2023-05-12T10:06:58;86003.50;;;15.46;62.24
41312;BME280;27061;41.648;24.568;2023-05-12T10:09:30;85973.75;;;15.36;62.59
41312;BME280;27061;41.648;24.568;2023-05-12T10:12:01;86059.59;;;16.10;63.18
41312;BME280;27061;41.648;24.568;2023-05-12T10:14:30;86033.88;;;16.08;59.12
41312;BME280;27061;41.648;24.568;2023-05-12T10:16:58;86062.69;;;16.25;59.80
41312;BME280;27061;41.648;24.568;2023-05-12T10:19:29;86027.75;;;16.01;61.58
41312;BME280;27061;41.648;24.568;2023-05-12T10:21:59;86029.06;;;16.04;58.72
41312;BME280;27061;41.648;24.568;2023-05-12T10:24:26;86045.25;;;16.25;60.40
41312;BME280;27061;41.648;24.568;2023-05-12T10:26:54;86065.88;;;16.36;60.35
41312;BME280;27061;41.648;24.568;2023-05-12T10:29:25;86049.91;;;16.32;59.45
41312;BME280;27061;41.648;24.568;2023-05-12T10:31:56;86043.06;;;16.27;59.07
41312;BME280;27061;41.648;24.568;2023-05-12T10:34:38;86025.44;;;16.10;60.21
41312;BME280;27061;41.648;24.568;2023-05-12T10:37:09;86044.94;;;15.87;61.06
41312;BME280;27061;41.648;24.568;2023-05-12T10:39:47;86053.13;;;16.18;61.24
41312;BME280;27061;41.648;24.568;2023-05-12T10:42:22;86050.97;;;16.21;61.29
41312;BME280;27061;41.648;24.568;2023-05-12T10:44:53;86053.84;;;16.17;61.02
41312;BME280;27061;41.648;24.568;2023-05-12T10:47:35;86060.63;;;16.24;59.95
41312;BME280;27061;41.648;24.568;2023-05-12T10:50:03;86062.13;;;16.21;58.85
41312;BME280;27061;41.648;24.568;2023-05-12T10:52:31;86060.88;;;16.16;59.07
41312;BME280;27061;41.648;24.568;2023-05-12T10:55:00;86054.31;;;16.00;57.83
41312;BME280;27061;41.648;24.568;2023-05-12T10:57:27;86059.56;;;16.13;58.07
41312;BME280;27061;41.648;24.568;2023-05-12T10:59:58;86066.50;;;16.14;58.53
41312;BME280;27061;41.648;24.568;2023-05-12T11:02:32;86072.09;;;16.14;58.82
41312;BME280;27061;41.648;24.568;2023-05-12T11:05:09;86060.44;;;16.07;55.84
41312;BME280;27061;41.648;24.568;2023-05-12T11:07:48;86052.09;;;15.80;56.81
41312;BME280;27061;41.648;24.568;2023-05-12T11:10:21;86063.06;;;15.88;53.80
41312;BME280;27061;41.648;24.568;2023-05-12T11:12:52;86080.00;;;15.80;55.29
41312;BME280;27061;41.648;24.568;2023-05-12T11:15:22;86064.91;;;15.71;55.54
41312;BME280;27061;41.648;24.568;2023-05-12T11:17:50;86070.16;;;15.83;53.66
41312;BME280;27061;41.648;24.568;2023-05-12T11:20:22;86054.47;;;15.69;53.86
41312;BME280;27061;41.648;24.568;2023-05-12T11:22:50;86079.53;;;15.71;54.14
41312;BME280;27061;41.648;24.568;2023-05-12T11:25:17;86064.31;;;15.39;52.79
41312;BME280;27061;41.648;24.568;2023-05-12T11:27:48;86023.66;;;15.22;54.56
41312;BME280;27061;41.648;24.568;2023-05-12T11:30:19;86053.38;;;15.31;53.61
41312;BME280;27061;41.648;24.568;2023-05-12T11:32:46;86075.94;;;15.48;54.56
41312;BME280;27061;41.648;24.568;2023-05-12T11:35:15;86036.50;;;15.11;54.79
41312;BME280;27061;41.648;24.568;2023-05-12T11:37:43;86070.22;;;15.27;55.49
41312;BME280;27061;41.648;24.568;2023-05-12T11:40:20;86083.44;;;15.29;54.68
41312;BME280;27061;41.648;24.568;2023-05-12T11:42:49;86082.94;;;15.20;54.80
41312;BME280;27061;41.648;24.568;2023-05-12T11:45:26;86057.53;;;14.77;54.21
41312;BME280;27061;41.648;24.568;2023-05-12T11:48:11;86085.91;;;15.14;54.26
41312;BME280;27061;41.648;24.568;2023-05-12T11:50:40;86088.75;;;15.12;54.56
41312;BME280;27061;41.648;24.568;2023-05-12T11:53:12;86062.78;;;14.91;55.02
41312;BME280;27061;41.648;24.568;2023-05-12T11:55:47;86091.66;;;15.06;53.88
41312;BME280;27061;41.648;24.568;2023-05-12T11:58:20;86056.09;;;14.80;54.96
41312;BME280;27061;41.648;24.568;2023-05-12T12:00:47;86082.28;;;14.91;54.54
41312;BME280;27061;41.648;24.568;2023-05-12T12:03:15;86069.97;;;14.82;55.44
41312;BME280;27061;41.648;24.568;2023-05-12T12:05:44;86093.06;;;15.05;55.71
41312;BME280;27061;41.648;24.568;2023-05-12T12:08:13;86090.25;;;15.07;55.39
41312;BME280;27061;41.648;24.568;2023-05-12T12:10:45;86097.16;;;15.10;54.75
41312;BME280;27061;41.648;24.568;2023-05-12T12:13:18;86090.19;;;15.09;54.85
41312;BME280;27061;41.648;24.568;2023-05-12T12:15:45;86090.69;;;14.89;54.19
41312;BME280;27061;41.648;24.568;2023-05-12T12:18:12;86075.53;;;14.82;54.51
41312;BME280;27061;41.648;24.568;2023-05-12T12:20:39;86098.72;;;15.03;55.80
41312;BME280;27061;41.648;24.568;2023-05-12T12:23:07;86097.25;;;15.06;55.33
41312;BME280;27061;41.648;24.568;2023-05-12T12:25:34;85977.03;;;14.05;55.34
41312;BME280;27061;41.648;24.568;2023-05-12T12:28:01;86072.84;;;14.78;56.75
41312;BME280;27061;41.648;24.568;2023-05-12T12:30:29;86095.19;;;15.05;55.91
41312;BME280;27061;41.648;24.568;2023-05-12T12:32:57;86083.72;;;14.90;56.52
41312;BME280;27061;41.648;24.568;2023-05-12T12:35:24;86042.41;;;14.70;56.14
41312;BME280;27061;41.648;24.568;2023-05-12T12:37:51;86084.84;;;15.01;55.17
41312;BME280;27061;41.648;24.568;2023-05-12T12:40:18;86094.63;;;15.00;55.99
41312;BME280;27061;41.648;24.568;2023-05-12T12:42:46;86041.16;;;14.62;56.32
41312;BME280;27061;41.648;24.568;2023-05-12T12:45:13;86100.16;;;15.02;56.31
41312;BME280;27061;41.648;24.568;2023-05-12T12:47:43;86088.94;;;15.04;56.43
41312;BME280;27061;41.648;24.568;2023-05-12T12:50:10;86086.28;;;14.98;56.62
41312;BME280;27061;41.648;24.568;2023-05-12T12:52:37;86091.97;;;14.94;56.75
41312;BME280;27061;41.648;24.568;2023-05-12T12:55:05;86112.41;;;15.13;55.86
41312;BME280;27061;41.648;24.568;2023-05-12T12:57:32;86104.19;;;15.07;56.66
41312;BME280;27061;41.648;24.568;2023-05-12T13:00:01;86082.28;;;14.91;55.89
41312;BME280;27061;41.648;24.568;2023-05-12T13:02:32;86038.38;;;14.62;56.04